Main page
METAR-TAF:

METAR-TAF

Airports :

Carajás Airport

Parauapebas, Pará, Brazil

latitude: 06-07S, longitude: 050-00W, elevation: 621 m

Current weather observation

The report was made 47 minutes ago, at 16:00 UTC
Wind 3 kt from the Northeast
Temperature 25°C
Humidity 83%
Pressure 1016 hPa
Visibility: 5000 m
Broken clouds at a height of 1000 ft
mist

METAR: SBCJ 211600Z 05003KT 5000 BR BKN010 25/22 Q1016

Time: 13:47 (16:47 UTC)

Forecast

The report was made 7 hours and 47 minutes ago, at 09:00 UTC
Forecast valid from 21 at 12 UTC to 21 at 24 UTC
Wind 5 kt from the Northeast
Visibility: 2000 m
Broken clouds at a height of 600 ft
rain, mist
Becoming
from 21 at 12 UTC to 21 at 15 UTC
Visibility: 7000 m
Broken clouds at a height of 1500 ft
Becoming
from 21 at 16 UTC to 21 at 18 UTC
Scattered clouds at a height of 1500 ft

TAF: SBCJ 210900Z 2112/2124 05005KT 2000 RA BR BKN006 TN22/2112Z TX27/2118Z BECMG 2112/2115 7000 NSW BKN015 BECMG 2116/2118 SCT015 RMK PGZ

Weather observations and forecasts of more than 4000 airports (METAR and TAF reports).

The available stations are represented by yellow and red dots on the map.

Hover mouse over dot to see the name of the station.

Then click to see weather observations and forecasts.

To change the map : click on the green buttons with a black cross to zoom in, on the green button with a dash to zoom out, or on the green arrows for adjacent maps.


METAR-TAF: